createdAt,value
2023-03-19T05:47:37.259Z,8.90
2023-03-19T05:50:06.035Z,8.90
2023-03-19T05:52:34.095Z,8.90
2023-03-19T05:55:01.956Z,9.00
2023-03-19T05:57:29.837Z,9.00
2023-03-19T05:59:57.898Z,9.10
2023-03-19T06:02:25.989Z,9.10
2023-03-19T06:04:55.537Z,9.20
2023-03-19T06:07:23.499Z,9.20
2023-03-19T06:09:51.790Z,9.20
2023-03-19T06:12:19.719Z,9.30
2023-03-19T06:14:48.081Z,9.40
2023-03-19T06:17:15.992Z,9.40
2023-03-19T06:19:43.874Z,9.50
2023-03-19T06:22:13.493Z,9.60
2023-03-19T06:24:41.930Z,9.70
2023-03-19T06:27:10.441Z,9.80
2023-03-19T06:29:38.366Z,9.80
2023-03-19T06:32:07.535Z,9.80
2023-03-19T06:34:35.725Z,9.90
2023-03-19T06:37:03.616Z,9.90
2023-03-19T06:39:33.086Z,9.90
2023-03-19T06:42:01.198Z,10.00
2023-03-19T06:44:29.143Z,10.00
2023-03-19T06:46:57.244Z,10.00
2023-03-19T06:49:25.480Z,10.10
2023-03-19T06:51:53.401Z,10.10
2023-03-19T06:54:21.369Z,10.10
2023-03-19T06:56:50.919Z,10.10
2023-03-19T06:59:18.857Z,10.10
2023-03-19T07:01:46.910Z,10.20
2023-03-19T07:04:14.857Z,10.20
2023-03-19T07:06:42.769Z,10.20
2023-03-19T07:09:10.727Z,10.30
2023-03-19T07:11:38.950Z,10.30
2023-03-19T07:14:08.257Z,10.50
2023-03-19T07:16:36.225Z,10.60
2023-03-19T07:19:04.162Z,10.70
2023-03-19T07:21:32.808Z,10.80
2023-03-19T07:24:00.756Z,10.90
2023-03-19T07:26:28.698Z,11.00
2023-03-19T07:28:56.624Z,11.00
2023-03-19T07:31:25.882Z,11.00
2023-03-19T07:33:53.855Z,11.10
2023-03-19T07:36:22.602Z,11.20
2023-03-19T07:38:50.896Z,11.30
2023-03-19T07:41:19.034Z,11.40
2023-03-19T07:43:46.949Z,11.40
2023-03-19T15:02:39.579Z,13.80
2023-03-19T15:05:16.079Z,13.70
2023-03-19T15:07:47.708Z,13.70
2023-03-19T15:10:18.852Z,13.70
2023-03-19T15:13:14.461Z,13.50
2023-03-19T15:16:07.739Z,13.30
2023-03-19T15:18:38.905Z,12.70
2023-03-19T15:21:08.264Z,12.30
2023-03-19T15:23:36.851Z,12.10
2023-03-19T15:26:08.672Z,12.00
2023-03-19T15:28:47.381Z,11.90
2023-03-19T15:31:30.905Z,11.90
2023-03-19T15:34:03.007Z,11.90
2023-03-19T15:36:34.434Z,12.00
2023-03-19T15:39:05.120Z,12.20
2023-03-19T15:41:36.501Z,12.20
2023-03-19T15:44:11.870Z,12.30
2023-03-19T15:46:42.651Z,12.40
2023-03-19T15:49:17.588Z,12.50
2023-03-19T15:51:51.414Z,12.50
2023-03-19T15:54:20.743Z,12.60
2023-03-19T15:56:51.101Z,12.50
2023-03-19T15:59:21.845Z,12.50
2023-03-19T16:01:51.057Z,12.40
2023-03-19T16:04:26.285Z,12.60
2023-03-19T16:06:54.188Z,12.70
2023-03-19T16:09:25.978Z,12.80
2023-03-19T16:11:54.642Z,12.70
2023-03-19T16:14:29.729Z,12.70
2023-03-19T16:17:03.204Z,12.70
2023-03-19T16:19:38.105Z,12.50
2023-03-19T16:22:13.830Z,12.40
2023-03-19T16:24:43.420Z,12.30
2023-03-19T16:27:15.259Z,12.30
2023-03-19T16:29:44.786Z,12.30
2023-03-19T16:32:22.251Z,12.20
2023-03-19T16:34:53.653Z,12.30
2023-03-19T16:37:34.259Z,12.30
2023-03-19T16:40:03.755Z,12.30
2023-03-19T16:42:41.725Z,12.20
2023-03-19T16:45:21.535Z,12.20
2023-03-19T16:47:51.011Z,12.20
2023-03-19T16:50:22.417Z,12.20
2023-03-19T16:52:51.108Z,12.20
2023-03-19T16:55:22.757Z,12.20
2023-03-19T16:57:57.104Z,12.20
2023-03-19T17:00:26.367Z,12.20
2023-03-19T17:02:55.777Z,12.10
2023-03-19T17:05:26.399Z,12.00
2023-03-19T17:07:55.701Z,12.00
2023-03-19T17:10:27.520Z,11.90
2023-03-19T17:12:57.007Z,11.90
2023-03-19T17:15:27.962Z,11.80
2023-03-19T17:17:57.315Z,11.80
2023-03-19T17:20:32.634Z,11.70
2023-03-19T17:23:00.576Z,11.70
2023-03-19T17:25:28.946Z,11.70
2023-03-19T17:27:56.933Z,11.60
2023-03-19T17:30:26.498Z,11.70
2023-03-19T17:32:57.092Z,11.80
2023-03-19T17:35:27.284Z,11.80
2023-03-19T17:37:55.346Z,11.70
2023-03-19T17:40:26.602Z,11.70
2023-03-19T17:42:56.317Z,11.70
2023-03-19T17:45:29.648Z,11.70
2023-03-19T17:47:59.026Z,11.50
2023-03-19T17:50:31.599Z,11.40
2023-03-19T17:53:00.192Z,11.20
2023-03-19T17:55:30.288Z,11.20
2023-03-19T17:57:58.212Z,11.20
2023-03-19T18:00:26.385Z,11.20
2023-03-19T18:02:56.753Z,11.30
2023-03-19T18:05:28.015Z,11.50
2023-03-19T18:07:57.951Z,11.40
2023-03-19T18:10:29.756Z,11.10
2023-03-19T18:13:00.084Z,10.90
2023-03-19T18:15:29.224Z,10.70
2023-03-19T18:17:59.858Z,10.60
2023-03-19T18:20:33.280Z,10.60
2023-03-19T18:23:01.447Z,10.60
2023-03-19T18:25:31.794Z,10.60
2023-03-19T18:27:59.804Z,10.40
2023-03-19T18:30:30.928Z,10.30
2023-03-19T18:33:01.715Z,10.30
2023-03-19T18:35:33.673Z,10.20
2023-03-19T18:38:01.759Z,10.10
2023-03-19T18:40:31.801Z,10.10
2023-03-19T18:42:59.769Z,10.10
2023-03-19T18:45:30.243Z,10.10
2023-03-19T18:47:58.248Z,10.10
2023-03-19T18:50:29.587Z,10.10
2023-03-19T18:52:59.504Z,10.10
2023-03-19T18:55:30.212Z,10.10
2023-03-19T18:58:00.418Z,10.00
2023-03-19T19:00:30.906Z,10.10
2023-03-19T19:02:59.790Z,9.90
2023-03-19T19:05:29.871Z,9.90
2023-03-19T19:08:01.112Z,9.80
2023-03-19T19:10:33.978Z,9.70
2023-03-19T19:13:03.193Z,9.70
2023-03-19T19:15:34.152Z,9.70
2023-03-19T19:18:02.609Z,9.60
2023-03-19T19:20:31.248Z,9.60
2023-03-19T19:23:00.651Z,9.60
2023-03-19T19:25:30.163Z,9.50
2023-03-19T19:27:59.954Z,9.50
2023-03-19T19:30:29.263Z,9.30
2023-03-19T19:32:57.629Z,9.20
2023-03-19T19:35:27.705Z,9.10
2023-03-19T19:37:56.449Z,9.00
2023-03-19T19:40:30.621Z,8.80
2023-03-19T19:43:00.324Z,8.70
2023-03-19T19:45:32.553Z,8.60
2023-03-19T19:48:01.391Z,8.50
2023-03-19T19:50:29.752Z,8.30
2023-03-19T19:52:58.638Z,8.30
2023-03-19T19:55:28.473Z,8.20
2023-03-19T19:57:59.056Z,8.20
2023-03-19T20:00:29.733Z,8.10
2023-03-19T20:02:59.588Z,8.10
2023-03-19T20:05:30.185Z,8.00
2023-03-19T20:08:00.497Z,7.90
2023-03-19T20:10:31.700Z,7.90
2023-03-19T20:13:02.064Z,7.80
2023-03-19T20:15:33.994Z,7.70
2023-03-19T20:18:03.272Z,7.70
2023-03-19T20:20:33.375Z,7.60
2023-03-19T20:23:02.205Z,7.50
2023-03-19T20:25:33.202Z,7.50
2023-03-19T20:28:02.570Z,7.50
2023-03-19T20:30:33.308Z,7.40
2023-03-19T20:33:02.300Z,7.30
2023-03-19T20:35:32.196Z,7.30
2023-03-19T20:38:01.981Z,7.20
2023-03-19T20:40:34.542Z,7.20
2023-03-19T20:43:02.966Z,7.10
2023-03-19T20:45:35.394Z,7.10
2023-03-19T20:48:03.987Z,7.00
2023-03-19T20:50:34.594Z,7.00
2023-03-19T20:53:03.616Z,6.90
2023-03-19T20:55:34.883Z,6.90
2023-03-19T20:58:04.784Z,6.90
